Time;durP1;ratioP1;P1;durP2;ratioP2;P2;SDS_P1;SDS_P2;PMS_P1;PMS_P2;Temp;Humidity;BMP_temperature;BMP_pressure;BME280_temperature;BME280_humidity;BME280_pressure;Samples;Min_cycle;Max_cycle;Signal;HPM_P1;HPM_P2
2023/06/09 00:01:53;;;;;;;0.65;0.65;;;;;;;21.52;52.14;100817.69;5104499;29;20034;-84
2023/06/09 00:04:45;;;;;;;0.98;0.98;;;;;;;21.45;51.98;100819.94;5109892;28;20333;-85
2023/06/09 00:07:37;;;;;;;0.73;0.73;;;;;;;21.20;53.51;100818.16;5102312;29;20027;-84
2023/06/09 00:10:28;;;;;;;0.73;0.73;;;;;;;21.32;53.05;100814.63;5107959;28;20412;-84
2023/06/09 00:13:20;;;;;;;2.45;1.00;;;;;;;21.09;53.10;100818.91;5102787;29;20840;-84
2023/06/09 00:16:11;;;;;;;0.50;0.50;;;;;;;21.11;52.26;100803.66;5096908;29;20419;-84
2023/06/09 00:19:02;;;;;;;1.17;0.77;;;;;;;21.17;52.99;100794.38;5114740;28;20024;-84
2023/06/09 00:21:53;;;;;;;0.80;0.80;;;;;;;21.18;52.67;100796.06;5108817;28;20031;-84
2023/06/09 00:24:44;;;;;;;0.35;0.35;;;;;;;21.16;52.43;100795.31;5119198;28;20523;-85
2023/06/09 00:27:35;;;;;;;0.65;0.65;;;;;;;21.17;52.84;100799.69;5104822;29;20031;-84
2023/06/09 00:30:26;;;;;;;0.82;0.82;;;;;;;21.13;52.74;100795.53;5105902;28;20044;-84
2023/06/09 00:33:17;;;;;;;0.85;0.85;;;;;;;21.10;52.83;100798.44;5116731;28;20043;-85
2023/06/09 00:36:08;;;;;;;0.75;0.75;;;;;;;21.06;52.98;100797.81;5096958;29;20122;-84
2023/06/09 00:38:59;;;;;;;0.75;0.55;;;;;;;21.05;53.18;100796.09;5092491;29;20031;-85
2023/06/09 00:41:50;;;;;;;0.68;0.55;;;;;;;21.00;53.39;100793.75;5102367;29;20039;-84
2023/06/09 00:44:40;;;;;;;1.58;1.48;;;;;;;20.87;53.18;100790.22;5102444;29;20558;-82
2023/06/09 00:47:31;;;;;;;0.47;0.47;;;;;;;20.92;53.43;100793.44;5106974;29;20462;-84
2023/06/09 00:50:22;;;;;;;0.55;0.55;;;;;;;20.92;53.75;100785.44;5105547;28;20063;-84
2023/06/09 00:53:15;;;;;;;0.80;0.80;;;;;;;20.91;53.26;100789.88;5114643;28;20026;-85
2023/06/09 00:56:05;;;;;;;1.08;0.82;;;;;;;20.91;53.63;100784.56;5093127;29;20050;-85
2023/06/09 00:58:56;;;;;;;1.08;0.98;;;;;;;20.88;53.18;100789.25;5115883;29;20031;-84
2023/06/09 01:01:48;;;;;;;0.93;0.90;;;;;;;20.83;52.82;100783.41;5098813;29;20080;-84
2023/06/09 01:04:40;;;;;;;0.50;0.50;;;;;;;20.83;53.19;100780.72;5103372;29;20043;-84
2023/06/09 01:07:42;;;;;;;1.25;1.15;;;;;;;20.80;53.07;100770.25;5116438;28;20041;-85
2023/06/09 01:10:51;;;;;;;3.10;1.02;;;;;;;20.70;54.15;100770.88;5108122;29;20463;-84
2023/06/09 01:13:53;;;;;;;1.05;0.95;;;;;;;20.21;56.68;100766.22;5116784;28;20694;-84
2023/06/09 01:16:53;;;;;;;0.57;0.57;;;;;;;20.27;55.18;100757.84;5116260;28;20420;-85
2023/06/09 01:19:47;;;;;;;1.45;1.08;;;;;;;20.43;54.67;100758.50;5119288;28;20882;-85
2023/06/09 01:22:50;;;;;;;0.52;0.52;;;;;;;20.44;54.55;100768.22;5103859;29;20503;-84
2023/06/09 01:25:47;;;;;;;0.83;0.83;;;;;;;20.48;54.50;100770.63;5103897;29;20388;-87
2023/06/09 01:28:38;;;;;;;2.58;1.60;;;;;;;20.44;53.85;100770.88;5118839;29;20474;-83
2023/06/09 01:31:29;;;;;;;0.88;0.88;;;;;;;20.40;54.63;100785.34;5095775;28;20053;-83
2023/06/09 01:34:21;;;;;;;1.00;0.98;;;;;;;20.44;54.79;100776.19;5099335;28;20035;-84
2023/06/09 01:37:12;;;;;;;1.05;0.75;;;;;;;20.43;54.67;100782.47;5105335;28;20494;-84
2023/06/09 01:40:05;;;;;;;0.45;0.45;;;;;;;20.41;54.19;100787.06;5098627;28;20064;-82
2023/06/09 01:43:09;;;;;;;0.77;0.77;;;;;;;20.34;54.18;100772.44;5083779;29;20145;-84
2023/06/09 01:46:02;;;;;;;;;;;;;;;20.29;54.21;100766.56;5115099;28;20027;-84
2023/06/09 01:49:10;;;;;;;0.63;0.63;;;;;;;20.28;54.06;100773.69;5116779;28;19915;-83
2023/06/09 01:52:25;;;;;;;0.43;0.43;;;;;;;20.22;55.20;100786.56;5087850;28;20051;-85
2023/06/09 01:55:29;;;;;;;0.45;0.45;;;;;;;20.21;54.96;100795.50;5094418;29;20126;-84
2023/06/09 01:58:28;;;;;;;1.45;0.98;;;;;;;19.97;55.40;100801.50;5105328;29;20170;-84
2023/06/09 02:01:22;;;;;;;0.40;0.40;;;;;;;20.04;55.37;100800.16;5114484;28;20035;-83
2023/06/09 02:04:14;;;;;;;0.57;0.57;;;;;;;20.03;55.87;100802.94;5095794;28;20040;-83
2023/06/09 02:07:06;;;;;;;0.60;0.60;;;;;;;19.99;55.62;100806.75;5115772;29;20047;-85
2023/06/09 02:09:57;;;;;;;1.65;1.00;;;;;;;19.97;55.80;100793.53;5101488;28;20039;-83
2023/06/09 02:12:48;;;;;;;0.68;0.68;;;;;;;19.54;58.13;100801.63;5099635;29;20532;-83
2023/06/09 02:15:39;;;;;;;1.73;1.63;;;;;;;19.66;57.64;100799.03;5102412;29;20035;-84
2023/06/09 02:18:32;;;;;;;1.58;1.48;;;;;;;19.71;56.39;100804.03;5096958;29;20502;-84
2023/06/09 02:21:22;;;;;;;0.50;0.50;;;;;;;19.69;56.70;100810.41;5096087;28;20039;-84
2023/06/09 02:24:15;;;;;;;1.05;1.05;;;;;;;19.73;56.90;100796.81;5094647;29;20287;-84
2023/06/09 02:27:06;;;;;;;0.70;0.68;;;;;;;19.79;56.81;100814.19;5115107;28;20038;-84
2023/06/09 02:29:59;;;;;;;0.90;0.90;;;;;;;19.81;56.04;100810.47;5105227;28;20031;-85
2023/06/09 02:32:50;;;;;;;3.63;1.33;;;;;;;19.81;57.24;100806.97;5106337;29;20523;-84
2023/06/09 02:35:41;;;;;;;0.75;0.75;;;;;;;19.80;56.13;100802.59;5105622;29;20042;-85
2023/06/09 02:38:32;;;;;;;2.08;0.85;;;;;;;19.79;56.50;100791.06;5107409;29;20443;-86
2023/06/09 02:41:28;;;;;;;1.17;1.08;;;;;;;19.75;55.82;100797.56;5124445;28;20020;-83
2023/06/09 02:44:19;;;;;;;0.68;0.68;;;;;;;19.77;56.58;100792.13;5095088;29;20074;-85
2023/06/09 02:47:10;;;;;;;1.95;1.55;;;;;;;19.76;56.30;100785.09;5110600;28;20149;-84
2023/06/09 02:50:01;;;;;;;1.15;1.13;;;;;;;19.72;56.47;100781.78;5118170;28;20051;-85
2023/06/09 02:52:51;;;;;;;1.30;1.20;;;;;;;19.71;56.63;100784.56;5116931;28;20150;-84
2023/06/09 02:55:44;;;;;;;1.05;1.02;;;;;;;19.71;56.52;100782.72;5105870;29;20051;-83
2023/06/09 02:58:35;;;;;;;0.50;0.50;;;;;;;19.70;56.51;100791.69;5102491;29;20037;-84
2023/06/09 03:01:28;;;;;;;1.30;1.30;;;;;;;19.68;56.71;100788.28;5113414;28;20169;-84
2023/06/09 03:04:20;;;;;;;1.38;1.27;;;;;;;19.65;57.38;100793.78;5087970;29;20048;-84
2023/06/09 03:07:14;;;;;;;0.90;0.90;;;;;;;19.53;57.13;100795.41;5106516;29;20016;-84
2023/06/09 03:10:05;;;;;;;1.35;1.25;;;;;;;19.59;57.22;100783.53;5115918;29;20051;-84
2023/06/09 03:12:56;;;;;;;0.73;0.73;;;;;;;19.56;56.56;100789.03;5099631;29;20048;-84
2023/06/09 03:15:47;;;;;;;0.80;0.80;;;;;;;19.57;57.03;100799.59;5130109;28;20039;-85
2023/06/09 03:18:38;;;;;;;1.98;1.33;;;;;;;19.56;57.16;100797.03;5106871;29;20034;-83
2023/06/09 03:21:28;;;;;;;1.08;1.08;;;;;;;19.47;56.78;100796.66;5111598;28;20510;-84
2023/06/09 03:24:19;;;;;;;1.67;1.58;;;;;;;19.46;56.62;100794.94;5090179;29;20039;-83
2023/06/09 03:27:10;;;;;;;1.08;0.98;;;;;;;19.44;56.92;100802.19;5102425;29;20034;-85
2023/06/09 03:30:01;;;;;;;1.73;1.63;;;;;;;19.43;56.55;100800.47;5117301;28;20034;-83
2023/06/09 03:32:52;;;;;;;1.13;1.08;;;;;;;19.38;56.86;100799.91;5099363;28;20570;-84
2023/06/09 03:35:43;;;;;;;4.70;1.60;;;;;;;19.34;56.43;100807.22;5101288;29;20039;-84
2023/06/09 03:38:34;;;;;;;2.40;1.15;;;;;;;19.35;56.76;100794.78;5098063;29;20562;-83
2023/06/09 03:41:27;;;;;;;0.93;0.93;;;;;;;19.30;56.72;100799.53;5099867;28;20047;-84
2023/06/09 03:44:18;;;;;;;;;;;;;;;19.27;56.74;100799.75;5116181;28;20023;-84
2023/06/09 03:47:09;;;;;;;2.40;1.33;;;;;;;19.18;56.80;100798.50;5091473;29;19995;-84
2023/06/09 03:50:00;;;;;;;0.77;0.77;;;;;;;19.12;56.91;100797.09;5105478;28;20125;-84
2023/06/09 03:52:52;;;;;;;0.98;0.98;;;;;;;19.14;57.17;100797.81;5102489;29;20046;-84
2023/06/09 03:55:43;;;;;;;1.65;1.17;;;;;;;19.10;56.78;100796.31;5084213;29;20058;-83
2023/06/09 03:58:34;;;;;;;1.15;0.73;;;;;;;19.13;56.95;100793.44;5119689;28;20114;-84
2023/06/09 04:01:25;;;;;;;1.75;1.33;;;;;;;19.09;57.30;100791.94;5101809;29;20129;-83
2023/06/09 04:04:16;;;;;;;11.70;1.50;;;;;;;19.09;57.14;100797.28;5104603;29;20190;-83
2023/06/09 04:07:07;;;;;;;0.90;0.90;;;;;;;19.08;57.51;100795.56;5091460;29;20513;-84
2023/06/09 04:09:58;;;;;;;1.38;1.27;;;;;;;19.06;57.20;100794.78;5107367;28;20032;-85
2023/06/09 04:12:49;;;;;;;1.30;1.20;;;;;;;19.01;57.24;100796.88;5104055;29;20035;-85
2023/06/09 04:15:40;;;;;;;0.98;0.93;;;;;;;18.99;57.13;100798.78;5105075;29;20431;-84
2023/06/09 04:18:31;;;;;;;1.75;1.60;;;;;;;18.96;56.88;100805.13;5115964;28;20023;-83
2023/06/09 04:21:22;;;;;;;0.80;0.80;;;;;;;18.96;57.58;100806.97;5105045;28;20065;-84
2023/06/09 04:24:14;;;;;;;1.05;0.85;;;;;;;18.98;58.02;100805.03;5115506;28;20035;-82
2023/06/09 04:27:05;;;;;;;1.20;1.10;;;;;;;18.97;57.47;100798.00;5110853;29;20035;-84
2023/06/09 04:29:57;;;;;;;1.58;1.48;;;;;;;18.97;57.44;100803.31;5111809;28;20062;-83
2023/06/09 04:32:50;;;;;;;1.33;1.17;;;;;;;18.94;57.56;100787.59;5103335;28;20439;-84
2023/06/09 04:35:43;;;;;;;0.93;0.93;;;;;;;18.91;57.84;100803.69;5117484;28;20075;-84
2023/06/09 04:38:34;;;;;;;0.80;0.80;;;;;;;18.94;57.82;100808.84;5103479;29;20015;-84
2023/06/09 04:41:26;;;;;;;0.85;0.85;;;;;;;18.96;57.98;100810.47;5114382;28;20065;-83
2023/06/09 04:44:17;;;;;;;0.70;0.70;;;;;;;18.88;57.81;100805.56;5089425;29;20520;-85
2023/06/09 04:47:10;;;;;;;3.20;1.88;;;;;;;18.85;57.65;100813.75;5119328;28;20108;-84
2023/06/09 04:50:02;;;;;;;1.20;1.05;;;;;;;18.69;60.53;100807.63;5121692;28;20032;-84
2023/06/09 04:52:53;;;;;;;0.82;0.82;;;;;;;18.70;59.84;100809.34;5118496;28;20078;-84
2023/06/09 04:55:44;;;;;;;1.73;1.63;;;;;;;18.63;60.45;100816.81;5104934;29;20035;-84
2023/06/09 04:58:35;;;;;;;1.42;1.15;;;;;;;18.70;59.98;100807.53;5106414;29;20027;-84
2023/06/09 05:01:26;;;;;;;0.95;0.90;;;;;;;18.57;62.73;100806.56;5089638;29;20051;-84
2023/06/09 05:04:18;;;;;;;14.80;1.58;;;;;;;18.65;63.27;100811.41;5104927;29;20103;-84
2023/06/09 05:07:09;;;;;;;2.08;1.15;;;;;;;18.62;60.70;100811.63;5106207;29;20023;-84
2023/06/09 05:10:00;;;;;;;1.42;1.33;;;;;;;18.75;59.88;100814.41;5105507;29;20082;-84
2023/06/09 05:12:51;;;;;;;2.45;1.30;;;;;;;18.84;59.85;100814.69;5104608;28;20061;-83
2023/06/09 05:15:41;;;;;;;1.25;1.23;;;;;;;18.85;59.08;100816.41;5114484;29;20031;-84
2023/06/09 05:18:32;;;;;;;1.58;1.48;;;;;;;18.88;59.03;100820.66;5103759;29;20059;-84
2023/06/09 05:21:26;;;;;;;0.95;0.73;;;;;;;18.85;59.72;100820.84;5103111;29;20082;-84
2023/06/09 05:24:17;;;;;;;2.15;0.60;;;;;;;18.87;59.83;100833.13;5103220;29;20043;-85
2023/06/09 05:27:08;;;;;;;1.75;0.90;;;;;;;18.88;59.18;100839.28;5102823;28;20039;-88
2023/06/09 05:29:59;;;;;;;0.85;0.77;;;;;;;18.88;59.72;100837.47;5119317;28;20046;-89
2023/06/09 05:32:49;;;;;;;2.75;1.55;;;;;;;18.88;60.28;100840.13;5095797;29;20055;-89
2023/06/09 05:35:40;;;;;;;1.20;1.10;;;;;;;18.95;59.21;100837.16;5103430;29;20035;-89
2023/06/09 05:38:31;;;;;;;0.77;0.77;;;;;;;18.98;59.59;100836.94;5103226;29;20410;-86
2023/06/09 05:41:22;;;;;;;1.17;1.08;;;;;;;18.97;60.39;100840.53;5089958;29;20044;-91
2023/06/09 05:44:12;;;;;;;2.03;1.52;;;;;;;19.00;60.26;100838.59;5106681;29;20023;-92
2023/06/09 05:47:03;;;;;;;2.13;1.33;;;;;;;19.06;60.47;100840.00;5109151;28;20019;-90
2023/06/09 05:49:54;;;;;;;0.70;0.70;;;;;;;19.06;60.63;100839.16;5126671;29;20015;-92
2023/06/09 05:52:46;;;;;;;0.98;0.98;;;;;;;19.10;60.25;100840.66;5123833;29;20031;-87
2023/06/09 05:55:38;;;;;;;1.10;0.95;;;;;;;19.15;59.70;100846.56;5107889;29;20049;-87
2023/06/09 05:58:33;;;;;;;1.42;1.33;;;;;;;19.19;60.06;100842.75;5111267;28;20206;-84
2023/06/09 06:01:24;;;;;;;0.93;0.90;;;;;;;19.19;59.73;100843.63;5153339;23;20096;-80
2023/06/09 06:04:16;;;;;;;1.50;1.23;;;;;;;19.25;59.76;100838.88;5135669;28;20038;-79
2023/06/09 06:07:09;;;;;;;1.58;1.48;;;;;;;19.22;60.01;100837.25;5147528;28;20022;-80
2023/06/09 06:10:08;;;;;;;;;;;;;;;19.28;59.96;100838.69;5169238;28;20129;-80
2023/06/09 06:13:20;;;;;;;0.60;0.60;;;;;;;19.30;60.75;100831.44;5168502;28;19920;-82
2023/06/09 06:16:28;;;;;;;0.77;0.75;;;;;;;19.34;61.59;100838.31;5153666;28;20042;-81
2023/06/09 06:19:25;;;;;;;0.65;0.65;;;;;;;19.31;60.90;100831.38;5146372;28;20390;-81
2023/06/09 06:22:16;;;;;;;1.17;1.08;;;;;;;19.39;59.78;100846.00;5148169;28;20106;-82
2023/06/09 06:25:12;;;;;;;0.52;0.52;;;;;;;19.38;60.36;100844.28;5164217;28;20061;-83
2023/06/09 06:28:03;;;;;;;0.70;0.70;;;;;;;19.43;60.24;100851.03;5151671;28;20030;-82
2023/06/09 06:30:57;;;;;;;0.30;0.30;;;;;;;19.46;60.34;100847.31;5163789;28;20474;-82
2023/06/09 06:33:48;;;;;;;0.60;0.60;;;;;;;19.49;59.87;100852.47;5139770;28;20038;-82
2023/06/09 06:37:00;;;;;;;0.28;0.28;;;;;;;19.42;60.73;100851.97;5157942;28;20112;-82
2023/06/09 06:39:51;;;;;;;0.88;0.63;;;;;;;19.49;60.58;100847.97;5147234;28;20405;-81
2023/06/09 06:42:41;;;;;;;0.73;0.73;;;;;;;19.59;59.46;100842.09;5140724;28;20037;-82
2023/06/09 06:45:32;;;;;;;0.85;0.85;;;;;;;19.62;60.85;100847.22;5133846;28;20044;-81
2023/06/09 06:48:23;;;;;;;0.52;0.50;;;;;;;19.61;60.68;100833.03;5147758;28;20066;-80
2023/06/09 06:51:14;;;;;;;0.70;0.70;;;;;;;19.69;59.76;100845.88;5163418;28;20642;-81
2023/06/09 06:54:05;;;;;;;0.50;0.50;;;;;;;19.69;61.14;100842.34;5147466;28;20030;-81
2023/06/09 06:56:55;;;;;;;0.68;0.68;;;;;;;19.73;60.36;100839.41;5149540;28;20061;-82
2023/06/09 06:59:46;;;;;;;1.27;1.00;;;;;;;19.76;60.26;100833.00;5140756;28;20392;-80
2023/06/09 07:02:37;;;;;;;0.75;0.75;;;;;;;19.83;60.48;100842.34;5127673;28;20022;-82
2023/06/09 07:05:28;;;;;;;0.98;0.98;;;;;;;19.89;60.58;100831.31;5146236;28;20050;-81
2023/06/09 07:08:19;;;;;;;0.60;0.60;;;;;;;19.93;60.79;100835.47;5146449;28;20031;-81
2023/06/09 07:11:10;;;;;;;0.60;0.60;;;;;;;20.00;60.24;100841.28;5132673;28;20053;-81
2023/06/09 07:14:01;;;;;;;0.85;0.75;;;;;;;20.08;59.94;100833.63;5133556;28;20053;-80
2023/06/09 07:16:52;;;;;;;0.50;0.50;;;;;;;20.15;60.32;100843.88;5150272;28;20050;-81
2023/06/09 07:19:42;;;;;;;1.08;0.70;;;;;;;20.15;60.02;100843.88;5138517;28;20585;-81
2023/06/09 07:22:33;;;;;;;0.40;0.40;;;;;;;20.23;60.84;100844.22;5157249;28;20046;-80
2023/06/09 07:25:24;;;;;;;1.35;1.25;;;;;;;20.25;60.52;100845.81;5134093;28;20050;-81
2023/06/09 07:28:15;;;;;;;1.52;1.02;;;;;;;20.31;60.39;100844.56;5167372;28;20038;-81
2023/06/09 07:31:06;;;;;;;0.40;0.40;;;;;;;20.38;60.76;100842.38;5169605;28;20069;-82
2023/06/09 07:33:57;;;;;;;0.60;0.60;;;;;;;20.47;60.34;100846.22;5172140;28;20042;-84
2023/06/09 07:36:50;;;;;;;0.75;0.75;;;;;;;20.47;60.16;100846.22;5155420;28;20050;-83
2023/06/09 07:39:41;;;;;;;2.58;1.70;;;;;;;20.60;60.25;100841.78;5152830;28;20034;-85
2023/06/09 07:42:31;;;;;;;0.93;0.93;;;;;;;20.72;58.95;100843.59;5138111;28;20077;-82
2023/06/09 07:45:22;;;;;;;1.20;1.05;;;;;;;20.71;59.54;100835.72;5147240;28;20034;-81
2023/06/09 07:48:16;;;;;;;0.98;0.98;;;;;;;20.75;59.85;100829.25;5133941;28;20081;-82
2023/06/09 07:51:14;;;;;;;2.25;1.52;;;;;;;20.77;60.90;100831.81;5149952;28;20531;-82
2023/06/09 07:54:13;;;;;;;1.58;0.98;;;;;;;20.84;59.89;100830.44;5132861;28;20084;-82
2023/06/09 07:57:05;;;;;;;0.60;0.60;;;;;;;20.97;59.39;100831.28;5164706;28;20018;-82
2023/06/09 07:59:56;;;;;;;1.27;1.17;;;;;;;21.07;58.50;100829.69;5138949;28;20117;-81
2023/06/09 08:03:03;;;;;;;0.43;0.43;;;;;;;21.05;58.74;100834.28;5148655;28;20038;-82
2023/06/09 08:05:58;;;;;;;2.55;1.15;;;;;;;21.11;57.95;100832.16;5161923;28;20239;-81
2023/06/09 08:09:32;;;;;;;1.02;0.55;;;;;;;21.10;58.14;100830.44;5152281;28;20941;-81
2023/06/09 08:13:45;;;;;;;2.15;1.75;;;;;;;21.18;59.08;100828.09;5166510;28;20038;-83
2023/06/09 08:17:51;;;;;;;1.05;0.80;;;;;;;21.27;57.28;100821.25;5067552;29;20028;-82
2023/06/09 08:21:02;;;;;;;0.52;0.52;;;;;;;21.26;59.62;100819.53;5106621;29;20039;-81
2023/06/09 08:23:54;;;;;;;0.43;0.43;;;;;;;21.31;58.49;100823.59;5096919;28;20719;-81
2023/06/09 08:26:48;;;;;;;0.80;0.80;;;;;;;21.42;59.19;100824.66;5202193;23;20061;-82
2023/06/09 08:29:41;;;;;;;0.88;0.88;;;;;;;21.47;58.87;100819.81;5202391;28;20049;-83
2023/06/09 08:32:39;;;;;;;2.15;1.58;;;;;;;21.54;57.96;100821.09;5191996;28;20103;-81
2023/06/09 08:35:34;;;;;;;1.10;1.00;;;;;;;21.58;57.98;100809.25;5177727;28;20046;-81
2023/06/09 08:38:38;;;;;;;0.98;0.80;;;;;;;21.60;58.38;100814.50;5190811;28;20081;-83
2023/06/09 08:41:37;;;;;;;0.40;0.40;;;;;;;21.73;58.09;100818.00;5175196;28;20037;-85
2023/06/09 08:44:28;;;;;;;2.92;1.23;;;;;;;21.75;57.92;100809.84;5202110;28;20030;-84
2023/06/09 08:47:20;;;;;;;0.70;0.70;;;;;;;21.83;57.33;100812.81;5170722;28;20515;-81
2023/06/09 08:50:13;;;;;;;0.52;0.50;;;;;;;21.87;57.38;100802.75;5193614;28;20113;-83
2023/06/09 08:53:04;;;;;;;0.82;0.82;;;;;;;21.87;56.93;100803.59;5189728;28;20026;-84
2023/06/09 08:55:55;;;;;;;0.47;0.47;;;;;;;21.92;56.28;100808.59;5174713;28;20068;-83
2023/06/09 08:58:47;;;;;;;0.57;0.45;;;;;;;22.03;55.53;100808.69;5192738;28;20032;-84
2023/06/09 09:01:48;;;;;;;0.88;0.88;;;;;;;22.01;55.56;100802.59;5179284;28;20033;-83
2023/06/09 09:04:39;;;;;;;2.47;0.82;;;;;;;22.10;55.68;100798.41;5195449;28;20041;-82
2023/06/09 09:07:30;;;;;;;0.40;0.40;;;;;;;22.20;54.17;100806.56;5207134;28;20037;-82
2023/06/09 09:10:20;;;;;;;0.50;0.50;;;;;;;22.19;54.15;100807.53;5191775;28;20033;-84
2023/06/09 09:13:17;;;;;;;0.35;0.35;;;;;;;22.17;54.65;100805.81;5189221;28;20170;-84
2023/06/09 09:16:15;;;;;;;1.00;0.50;;;;;;;22.31;54.17;100804.78;5210740;28;20022;-82
2023/06/09 09:19:06;;;;;;;0.50;0.50;;;;;;;22.48;54.57;100808.03;5195050;28;20018;-83
2023/06/09 09:22:05;;;;;;;0.40;0.40;;;;;;;22.49;54.76;100801.72;5200462;28;20022;-83
2023/06/09 09:24:56;;;;;;;2.13;0.93;;;;;;;22.56;53.79;100804.78;5196603;28;20096;-82
2023/06/09 09:28:03;;;;;;;0.70;0.70;;;;;;;22.49;54.01;100801.72;5210483;28;20722;-81
2023/06/09 09:30:54;;;;;;;0.73;0.73;;;;;;;22.66;53.61;100805.75;5191843;28;20041;-81
2023/06/09 09:33:47;;;;;;;1.65;1.15;;;;;;;22.91;53.73;100804.72;5192062;28;20117;-81
2023/06/09 09:36:45;;;;;;;0.30;0.30;;;;;;;22.94;53.18;100798.28;5188169;28;20048;-83
2023/06/09 09:39:50;;;;;;;0.73;0.73;;;;;;;23.02;51.26;100786.97;5195736;28;20101;-81
2023/06/09 09:42:45;;;;;;;1.05;0.68;;;;;;;23.03;51.53;100788.66;5197060;28;20048;-83
2023/06/09 09:45:38;;;;;;;1.10;0.82;;;;;;;23.05;52.44;100792.06;5188448;28;20029;-82
2023/06/09 09:48:28;;;;;;;0.90;0.85;;;;;;;23.12;52.11;100790.63;5192148;28;20026;-82
2023/06/09 09:51:20;;;;;;;0.80;0.80;;;;;;;23.16;51.76;100783.19;5199573;28;20036;-84
2023/06/09 09:54:12;;;;;;;3.10;0.50;;;;;;;23.12;50.84;100793.28;5182270;28;20025;-82
2023/06/09 09:57:04;;;;;;;0.50;0.50;;;;;;;23.35;50.17;100786.16;5199697;28;20021;-84
2023/06/09 09:59:56;;;;;;;1.90;1.27;;;;;;;23.41;51.26;100787.47;5197077;28;20037;-84
2023/06/09 10:02:51;;;;;;;0.82;0.82;;;;;;;23.47;51.41;100789.66;5184960;28;20053;-82
2023/06/09 10:05:45;;;;;;;1.13;0.98;;;;;;;23.46;50.56;100790.63;5199684;28;20037;-81
2023/06/09 10:08:39;;;;;;;0.50;0.50;;;;;;;23.47;51.02;100788.81;5183434;28;20045;-85
2023/06/09 10:11:35;;;;;;;0.68;0.68;;;;;;;23.77;49.87;100781.94;5195417;28;20284;-82
2023/06/09 10:14:27;;;;;;;1.13;1.08;;;;;;;23.72;49.59;100783.13;5182074;28;20046;-84
2023/06/09 10:17:20;;;;;;;0.43;0.43;;;;;;;23.84;50.78;100780.44;5189771;28;20026;-85
2023/06/09 10:20:12;;;;;;;0.50;0.50;;;;;;;23.93;50.14;100778.81;5178091;28;20129;-82
2023/06/09 10:23:04;;;;;;;0.60;0.60;;;;;;;23.98;49.07;100782.00;5199027;28;20026;-81
2023/06/09 10:25:55;;;;;;;2.05;0.98;;;;;;;24.03;48.99;100785.16;5166853;28;20129;-83
2023/06/09 10:28:46;;;;;;;0.40;0.40;;;;;;;24.11;49.81;100780.00;5182822;28;20030;-83
2023/06/09 10:31:40;;;;;;;0.60;0.40;;;;;;;24.10;49.76;100775.63;5175575;28;20095;-83
2023/06/09 10:34:34;;;;;;;0.57;0.57;;;;;;;24.20;50.88;100776.56;5175184;28;20037;-81
2023/06/09 10:37:33;;;;;;;0.95;0.95;;;;;;;24.37;49.12;100771.59;5180241;28;20030;-81
2023/06/09 10:40:24;;;;;;;0.60;0.60;;;;;;;24.49;48.46;100770.56;5192182;28;20057;-80
2023/06/09 10:43:38;;;;;;;0.47;0.47;;;;;;;24.51;46.74;100778.47;5180895;28;20041;-81
2023/06/09 10:46:43;;;;;;;0.45;0.45;;;;;;;24.60;46.62;100766.09;5199883;28;20038;-82
2023/06/09 10:49:36;;;;;;;2.15;1.52;;;;;;;24.66;47.29;100761.06;5200060;28;20496;-83
2023/06/09 10:52:40;;;;;;;0.50;0.50;;;;;;;24.86;46.47;100760.34;5184528;28;20057;-80
2023/06/09 10:55:31;;;;;;;0.28;0.28;;;;;;;24.80;47.05;100757.22;5195567;28;20042;-78
2023/06/09 10:58:38;;;;;;;1.02;0.75;;;;;;;24.71;47.69;100751.81;5193368;28;20030;-78
2023/06/09 11:01:29;;;;;;;0.55;0.55;;;;;;;25.08;46.65;100756.63;5193274;28;20030;-80
2023/06/09 11:04:49;;;;;;;0.40;0.40;;;;;;;25.16;43.91;100751.41;5180482;28;20029;-82
2023/06/09 11:07:43;;;;;;;5.07;0.95;;;;;;;25.17;43.76;100750.44;5202947;28;20029;-80
2023/06/09 11:10:36;;;;;;;0.50;0.50;;;;;;;25.20;44.65;100752.00;5202759;28;20049;-80
2023/06/09 11:13:53;;;;;;;0.40;0.40;;;;;;;25.32;44.66;100755.41;5203188;28;20048;-80
2023/06/09 11:17:14;;;;;;;0.43;0.43;;;;;;;25.34;44.87;100748.91;5180972;28;20036;-80
2023/06/09 11:20:11;;;;;;;1.42;0.82;;;;;;;25.37;46.05;100743.28;5179932;28;20282;-82
2023/06/09 11:23:03;;;;;;;0.60;0.60;;;;;;;25.63;44.33;100737.44;5201460;28;20036;-79
2023/06/09 11:25:54;;;;;;;0.73;0.73;;;;;;;25.84;43.72;100740.00;5167039;28;20514;-80
2023/06/09 11:28:45;;;;;;;0.43;0.20;;;;;;;25.89;43.47;100735.03;5163445;28;20041;-80
2023/06/09 11:31:49;;;;;;;1.08;0.63;;;;;;;25.98;43.32;100735.16;5189995;28;20037;-78
2023/06/09 11:34:51;;;;;;;0.28;0.28;;;;;;;25.97;43.75;100726.28;5197318;28;20040;-80
2023/06/09 11:37:42;;;;;;;1.42;0.73;;;;;;;26.22;42.00;100726.72;5199518;28;20392;-79
2023/06/09 11:40:39;;;;;;;0.68;0.68;;;;;;;26.19;43.45;100724.28;5194069;28;20033;-79
2023/06/09 11:43:30;;;;;;;0.63;0.63;;;;;;;26.47;41.13;100721.69;5183739;28;20176;-79
2023/06/09 11:46:22;;;;;;;0.73;0.73;;;;;;;26.43;41.39;100718.47;5174289;28;20038;-80
2023/06/09 11:49:13;;;;;;;0.53;0.53;;;;;;;26.51;40.19;100720.41;5176899;28;20026;-81
2023/06/09 11:52:06;;;;;;;0.68;0.68;;;;;;;26.79;39.67;100720.50;5191270;28;20022;-80
2023/06/09 11:55:01;;;;;;;0.63;0.63;;;;;;;26.69;40.56;100718.66;5190122;28;20056;-81
2023/06/09 11:57:52;;;;;;;0.40;0.40;;;;;;;26.80;41.42;100719.50;5201715;28;20454;-78
2023/06/09 12:00:45;;;;;;;0.30;0.30;;;;;;;26.94;40.79;100708.25;5171983;28;20025;-84
2023/06/09 12:03:36;;;;;;;1.10;1.00;;;;;;;27.11;41.11;100711.97;5193053;28;20040;-80
2023/06/09 12:06:31;;;;;;;0.22;0.22;;;;;;;27.19;39.27;100703.16;5183540;28;20037;-78
2023/06/09 12:09:23;;;;;;;0.77;0.77;;;;;;;27.30;38.43;100713.72;5187634;28;20051;-80
2023/06/09 12:12:13;;;;;;;0.20;0.20;;;;;;;27.42;36.15;100708.09;5197298;28;20100;-84
2023/06/09 12:15:05;;;;;;;0.20;0.20;;;;;;;27.23;37.53;100711.78;5167116;28;20033;-80
2023/06/09 12:17:57;;;;;;;0.82;0.82;;;;;;;27.66;35.59;100704.84;5195528;28;20021;-80
2023/06/09 12:20:53;;;;;;;2.50;1.73;;;;;;;27.67;35.72;100700.28;5187049;28;20029;-81
2023/06/09 12:23:44;;;;;;;0.75;0.73;;;;;;;27.67;36.45;100700.28;5186869;28;20095;-80
2023/06/09 12:26:44;;;;;;;0.50;0.50;;;;;;;27.88;35.68;100698.13;5185435;28;20034;-79
2023/06/09 12:29:35;;;;;;;0.20;0.20;;;;;;;27.78;35.86;100697.38;5195506;28;20033;-81
2023/06/09 12:32:26;;;;;;;0.32;0.30;;;;;;;28.01;36.21;100686.09;5167828;28;20026;-81
2023/06/09 12:35:16;;;;;;;0.50;0.50;;;;;;;28.15;35.13;100690.94;5173434;28;20025;-79
2023/06/09 12:38:18;;;;;;;0.57;0.57;;;;;;;28.37;34.76;100691.44;5205400;28;20076;-81
2023/06/09 12:41:11;;;;;;;0.32;0.32;;;;;;;28.37;36.78;100686.03;5184361;28;20048;-81
2023/06/09 12:44:02;;;;;;;0.63;0.45;;;;;;;28.46;35.22;100678.84;5172090;28;20029;-80
2023/06/09 12:46:57;;;;;;;0.43;0.43;;;;;;;28.72;33.22;100684.22;5197021;28;20028;-80
2023/06/09 12:49:48;;;;;;;0.20;0.20;;;;;;;28.80;34.82;100676.16;5169983;28;20038;-79
2023/06/09 12:52:39;;;;;;;0.45;0.38;;;;;;;28.85;33.87;100673.84;5205716;28;20058;-81
2023/06/09 12:55:30;;;;;;;0.38;0.38;;;;;;;28.81;32.54;100671.63;5187682;28;20029;-81
2023/06/09 12:58:20;;;;;;;0.28;0.28;;;;;;;28.96;33.86;100671.84;5186309;28;20034;-80
2023/06/09 13:01:11;;;;;;;0.40;0.40;;;;;;;29.28;31.76;100670.25;5200420;28;20179;-80
2023/06/09 13:04:03;;;;;;;0.45;0.32;;;;;;;29.34;32.37;100661.50;5172763;28;20029;-83
2023/06/09 13:06:54;;;;;;;0.85;0.73;;;;;;;29.31;33.19;100659.97;5194645;28;20125;-80
2023/06/09 13:09:44;;;;;;;0.28;0.28;;;;;;;29.29;33.49;100648.47;5181928;28;20419;-81
2023/06/09 13:12:35;;;;;;;0.70;0.50;;;;;;;29.63;32.46;100650.22;5186275;28;20025;-80
2023/06/09 13:15:26;;;;;;;0.45;0.45;;;;;;;29.70;33.01;100647.69;5194547;28;20037;-81
2023/06/09 13:18:17;;;;;;;0.90;0.52;;;;;;;29.64;33.27;100649.19;5191920;28;20034;-81
2023/06/09 13:21:08;;;;;;;1.13;0.52;;;;;;;29.74;32.06;100646.31;5169378;28;20387;-79
2023/06/09 13:23:59;;;;;;;0.40;0.40;;;;;;;29.75;32.14;100648.00;5189876;28;20612;-82
2023/06/09 13:26:50;;;;;;;0.40;0.40;;;;;;;29.73;31.25;100643.78;5190342;28;20056;-81
2023/06/09 13:29:40;;;;;;;0.68;0.68;;;;;;;29.83;31.59;100634.50;5195012;28;20132;-79
2023/06/09 13:32:31;;;;;;;0.38;0.30;;;;;;;29.87;30.95;100635.00;5185920;28;20060;-80